createdAt,value
2017-08-26T00:03:08.000Z,24.2
2017-08-26T00:13:08.000Z,24.18
2017-08-26T00:23:08.000Z,24.17
2017-08-26T00:33:08.000Z,24.16
2017-08-26T00:43:08.000Z,24.14
2017-08-26T00:53:08.000Z,24.14
2017-08-26T01:03:08.000Z,24.1
2017-08-26T01:13:08.000Z,24.08
2017-08-26T01:23:09.000Z,24.06
2017-08-26T01:33:08.000Z,24.02
2017-08-26T01:43:08.000Z,23.98
2017-08-26T01:53:08.000Z,23.97
2017-08-26T02:03:08.000Z,23.99
2017-08-26T02:13:08.000Z,23.93
2017-08-26T02:23:08.000Z,23.95
2017-08-26T02:33:08.000Z,23.87
2017-08-26T02:43:08.000Z,23.85
2017-08-26T02:53:08.000Z,23.83
2017-08-26T03:03:08.000Z,23.83
2017-08-26T03:13:08.000Z,23.81
2017-08-26T03:23:08.000Z,23.8
2017-08-26T03:33:08.000Z,23.75
2017-08-26T03:43:08.000Z,23.76
2017-08-26T03:53:08.000Z,23.75
2017-08-26T04:03:08.000Z,23.71
2017-08-26T04:13:08.000Z,23.7
2017-08-26T04:23:08.000Z,23.69
2017-08-26T04:33:10.000Z,23.66
2017-08-26T04:43:09.000Z,23.64
2017-08-26T04:53:09.000Z,23.62
2017-08-26T05:03:09.000Z,23.6
2017-08-26T05:13:09.000Z,23.61
2017-08-26T05:23:09.000Z,23.57
2017-08-26T05:33:09.000Z,23.57
2017-08-26T05:43:09.000Z,23.53
2017-08-26T05:53:09.000Z,23.52
2017-08-26T06:03:09.000Z,23.52
2017-08-26T06:13:09.000Z,23.51
2017-08-26T06:23:09.000Z,23.5
2017-08-26T06:33:09.000Z,23.51
2017-08-26T06:43:09.000Z,23.51
2017-08-26T06:53:09.000Z,23.54
2017-08-26T07:03:09.000Z,23.59
2017-08-26T07:13:09.000Z,23.63
2017-08-26T07:23:09.000Z,23.63
2017-08-26T07:33:09.000Z,23.69
2017-08-26T07:43:09.000Z,23.78
2017-08-26T07:53:09.000Z,23.81
2017-08-26T08:03:09.000Z,23.81
2017-08-26T08:13:09.000Z,23.86
2017-08-26T08:23:09.000Z,23.86
2017-08-26T08:33:09.000Z,23.86
2017-08-26T08:43:09.000Z,23.89
2017-08-26T08:53:09.000Z,23.93
2017-08-26T09:03:09.000Z,24.09
2017-08-26T09:13:09.000Z,24.09
2017-08-26T09:23:09.000Z,24.3
2017-08-26T09:33:09.000Z,24.39
2017-08-26T09:43:09.000Z,24.45
2017-08-26T10:03:09.000Z,24.52
2017-08-26T10:13:09.000Z,24.61
2017-08-26T10:23:10.000Z,24.54
2017-08-26T10:33:09.000Z,24.59
2017-08-26T10:43:09.000Z,24.65
2017-08-26T10:53:09.000Z,24.77
2017-08-26T11:03:09.000Z,24.84
2017-08-26T11:13:09.000Z,24.87
2017-08-26T11:23:09.000Z,24.97
2017-08-26T11:33:09.000Z,25.02
2017-08-26T11:43:10.000Z,24.99
2017-08-26T11:53:09.000Z,25.01
2017-08-26T12:03:10.000Z,25.12
2017-08-26T12:13:09.000Z,25.14
2017-08-26T12:23:10.000Z,25.25
2017-08-26T12:33:10.000Z,25.3
2017-08-26T12:43:10.000Z,25.35
2017-08-26T12:53:10.000Z,25.3
2017-08-26T13:03:10.000Z,25.28
2017-08-26T13:13:10.000Z,25.26
2017-08-26T13:23:10.000Z,25.18
2017-08-26T13:33:10.000Z,25.51
2017-08-26T13:43:10.000Z,25.62
2017-08-26T13:53:10.000Z,25.64
2017-08-26T14:03:10.000Z,25.52
2017-08-26T14:13:10.000Z,25.51
2017-08-26T14:23:10.000Z,25.46
2017-08-26T14:33:10.000Z,25.44
2017-08-26T14:43:10.000Z,25.56
2017-08-26T14:53:10.000Z,25.52
2017-08-26T15:03:10.000Z,25.56
2017-08-26T15:23:14.000Z,25.52
2017-08-26T15:33:10.000Z,25.34
2017-08-26T15:43:14.000Z,25.22
2017-08-26T15:53:10.000Z,25.18
2017-08-26T16:03:10.000Z,25.31
2017-08-26T16:13:10.000Z,25.38
2017-08-26T16:23:11.000Z,25.22
2017-08-26T16:33:10.000Z,25.31
2017-08-26T16:43:10.000Z,25.36
2017-08-26T16:53:10.000Z,25.08
2017-08-26T17:03:10.000Z,25.05
2017-08-26T17:13:10.000Z,25.17
2017-08-26T17:23:10.000Z,25.17
2017-08-26T17:33:10.000Z,25.09
2017-08-26T17:43:10.000Z,25.09
2017-08-26T17:53:10.000Z,25.17
2017-08-26T18:03:10.000Z,25.2
2017-08-26T18:13:10.000Z,25.22
2017-08-26T18:23:10.000Z,25
2017-08-26T18:33:10.000Z,25.02
2017-08-26T18:43:10.000Z,24.84
2017-08-26T18:53:10.000Z,24.83
2017-08-26T19:03:10.000Z,24.93
2017-08-26T19:13:13.000Z,24.78
2017-08-26T19:23:10.000Z,24.83
2017-08-26T19:33:10.000Z,24.7
2017-08-26T19:43:10.000Z,24.87
2017-08-26T19:53:10.000Z,24.9
2017-08-26T20:03:10.000Z,24.93
2017-08-26T20:13:10.000Z,24.91
2017-08-26T20:23:11.000Z,24.93
2017-08-26T20:33:11.000Z,24.92
2017-08-26T20:43:11.000Z,24.9
2017-08-26T20:53:11.000Z,24.89
2017-08-26T21:03:11.000Z,24.9
2017-08-26T21:13:11.000Z,24.98
2017-08-26T21:23:11.000Z,24.93
2017-08-26T21:33:11.000Z,24.88
2017-08-26T21:43:11.000Z,24.85
2017-08-26T21:53:11.000Z,24.83
2017-08-26T22:03:11.000Z,24.85
2017-08-26T22:13:11.000Z,24.8
2017-08-26T22:23:11.000Z,24.81
2017-08-26T22:33:11.000Z,24.81
2017-08-26T22:43:11.000Z,24.85
2017-08-26T22:53:11.000Z,24.9
2017-08-26T23:03:11.000Z,24.86
2017-08-26T23:13:11.000Z,24.76
2017-08-26T23:23:11.000Z,24.67
2017-08-26T23:33:11.000Z,24.67
2017-08-26T23:43:11.000Z,24.63
2017-08-26T23:53:11.000Z,24.58
